sensor_id;sensor_type;location;lat;lon;timestamp;P1;durP1;ratioP1;P2;durP2;ratioP2
16878;SDS011;8556;52.218;9.884;2023-09-19T00:00:20;2.58;;;1.13;;
16878;SDS011;8556;52.218;9.884;2023-09-19T00:02:54;1.90;;;0.98;;
16878;SDS011;8556;52.218;9.884;2023-09-19T00:05:22;1.33;;;1.23;;
16878;SDS011;8556;52.218;9.884;2023-09-19T00:07:52;2.75;;;1.48;;
16878;SDS011;8556;52.218;9.884;2023-09-19T00:10:20;3.17;;;1.13;;
16878;SDS011;8556;52.218;9.884;2023-09-19T00:12:49;3.50;;;1.75;;
16878;SDS011;8556;52.218;9.884;2023-09-19T00:15:16;2.50;;;1.48;;
16878;SDS011;8556;52.218;9.884;2023-09-19T00:17:43;4.38;;;1.92;;
16878;SDS011;8556;52.218;9.884;2023-09-19T00:20:12;3.92;;;1.95;;
16878;SDS011;8556;52.218;9.884;2023-09-19T00:22:40;2.70;;;2.00;;
16878;SDS011;8556;52.218;9.884;2023-09-19T00:25:08;3.92;;;2.22;;
16878;SDS011;8556;52.218;9.884;2023-09-19T00:27:37;5.28;;;2.40;;
16878;SDS011;8556;52.218;9.884;2023-09-19T00:30:06;4.93;;;2.33;;
16878;SDS011;8556;52.218;9.884;2023-09-19T00:32:39;3.17;;;2.13;;
16878;SDS011;8556;52.218;9.884;2023-09-19T00:35:06;4.47;;;2.25;;
16878;SDS011;8556;52.218;9.884;2023-09-19T00:37:35;3.70;;;2.10;;
16878;SDS011;8556;52.218;9.884;2023-09-19T00:40:05;2.38;;;2.00;;
16878;SDS011;8556;52.218;9.884;2023-09-19T00:42:35;3.35;;;2.13;;
16878;SDS011;8556;52.218;9.884;2023-09-19T00:45:03;2.90;;;2.10;;
16878;SDS011;8556;52.218;9.884;2023-09-19T00:47:31;2.78;;;2.50;;
16878;SDS011;8556;52.218;9.884;2023-09-19T00:49:58;4.80;;;2.40;;
16878;SDS011;8556;52.218;9.884;2023-09-19T00:52:25;4.25;;;2.50;;
16878;SDS011;8556;52.218;9.884;2023-09-19T00:54:54;3.97;;;2.58;;
16878;SDS011;8556;52.218;9.884;2023-09-19T00:57:22;5.55;;;2.80;;
16878;SDS011;8556;52.218;9.884;2023-09-19T00:59:50;4.60;;;2.78;;
16878;SDS011;8556;52.218;9.884;2023-09-19T01:02:19;4.90;;;3.25;;
16878;SDS011;8556;52.218;9.884;2023-09-19T01:04:47;5.85;;;3.42;;
16878;SDS011;8556;52.218;9.884;2023-09-19T01:07:14;4.30;;;3.30;;
16878;SDS011;8556;52.218;9.884;2023-09-19T01:09:41;9.65;;;3.88;;
16878;SDS011;8556;52.218;9.884;2023-09-19T01:12:10;6.50;;;3.90;;
16878;SDS011;8556;52.218;9.884;2023-09-19T01:14:44;5.00;;;4.40;;
16878;SDS011;8556;52.218;9.884;2023-09-19T01:17:20;7.20;;;4.93;;
16878;SDS011;8556;52.218;9.884;2023-09-19T01:20:00;6.68;;;4.45;;
16878;SDS011;8556;52.218;9.884;2023-09-19T01:22:41;7.00;;;4.50;;
16878;SDS011;8556;52.218;9.884;2023-09-19T01:25:20;6.55;;;4.38;;
16878;SDS011;8556;52.218;9.884;2023-09-19T01:28:19;6.40;;;4.60;;
16878;SDS011;8556;52.218;9.884;2023-09-19T01:30:52;6.13;;;4.85;;
16878;SDS011;8556;52.218;9.884;2023-09-19T01:33:24;9.25;;;5.07;;
16878;SDS011;8556;52.218;9.884;2023-09-19T01:35:51;7.97;;;4.57;;
16878;SDS011;8556;52.218;9.884;2023-09-19T01:38:23;8.90;;;5.10;;
16878;SDS011;8556;52.218;9.884;2023-09-19T01:40:52;7.28;;;5.00;;
16878;SDS011;8556;52.218;9.884;2023-09-19T01:43:30;7.60;;;4.63;;
16878;SDS011;8556;52.218;9.884;2023-09-19T01:46:03;10.40;;;5.22;;
16878;SDS011;8556;52.218;9.884;2023-09-19T01:48:38;6.35;;;4.35;;
16878;SDS011;8556;52.218;9.884;2023-09-19T01:51:08;7.93;;;4.90;;
16878;SDS011;8556;52.218;9.884;2023-09-19T01:53:40;6.57;;;4.40;;
16878;SDS011;8556;52.218;9.884;2023-09-19T01:56:18;6.35;;;4.13;;
16878;SDS011;8556;52.218;9.884;2023-09-19T01:58:50;6.03;;;3.67;;
16878;SDS011;8556;52.218;9.884;2023-09-19T02:01:24;8.90;;;3.85;;
16878;SDS011;8556;52.218;9.884;2023-09-19T02:03:52;5.50;;;3.53;;
16878;SDS011;8556;52.218;9.884;2023-09-19T02:06:21;6.28;;;3.40;;
16878;SDS011;8556;52.218;9.884;2023-09-19T02:08:50;6.82;;;3.10;;
16878;SDS011;8556;52.218;9.884;2023-09-19T02:11:17;9.73;;;3.70;;
16878;SDS011;8556;52.218;9.884;2023-09-19T02:13:43;5.15;;;3.30;;
16878;SDS011;8556;52.218;9.884;2023-09-19T02:16:10;9.38;;;3.83;;
16878;SDS011;8556;52.218;9.884;2023-09-19T02:18:39;8.05;;;3.78;;
16878;SDS011;8556;52.218;9.884;2023-09-19T02:21:05;7.78;;;3.90;;
16878;SDS011;8556;52.218;9.884;2023-09-19T02:23:35;6.75;;;3.90;;
16878;SDS011;8556;52.218;9.884;2023-09-19T02:26:01;10.55;;;3.80;;
16878;SDS011;8556;52.218;9.884;2023-09-19T02:28:28;5.18;;;4.28;;
16878;SDS011;8556;52.218;9.884;2023-09-19T02:30:57;9.18;;;4.18;;
16878;SDS011;8556;52.218;9.884;2023-09-19T02:33:24;9.75;;;4.60;;
16878;SDS011;8556;52.218;9.884;2023-09-19T02:35:55;7.93;;;4.15;;
16878;SDS011;8556;52.218;9.884;2023-09-19T02:38:23;8.52;;;4.25;;
16878;SDS011;8556;52.218;9.884;2023-09-19T02:40:51;8.77;;;4.88;;
16878;SDS011;8556;52.218;9.884;2023-09-19T02:43:18;12.98;;;7.03;;
16878;SDS011;8556;52.218;9.884;2023-09-19T02:45:45;7.88;;;4.68;;
16878;SDS011;8556;52.218;9.884;2023-09-19T02:48:14;7.35;;;4.57;;
16878;SDS011;8556;52.218;9.884;2023-09-19T02:50:42;5.53;;;4.32;;
16878;SDS011;8556;52.218;9.884;2023-09-19T02:53:10;6.80;;;4.22;;
16878;SDS011;8556;52.218;9.884;2023-09-19T02:55:39;8.77;;;4.50;;
16878;SDS011;8556;52.218;9.884;2023-09-19T02:58:06;8.23;;;4.07;;
16878;SDS011;8556;52.218;9.884;2023-09-19T03:00:36;7.07;;;4.32;;
16878;SDS011;8556;52.218;9.884;2023-09-19T03:03:04;7.97;;;4.80;;
16878;SDS011;8556;52.218;9.884;2023-09-19T03:05:33;8.13;;;4.20;;
16878;SDS011;8556;52.218;9.884;2023-09-19T03:08:00;8.25;;;4.40;;
16878;SDS011;8556;52.218;9.884;2023-09-19T03:10:29;8.82;;;4.60;;
16878;SDS011;8556;52.218;9.884;2023-09-19T03:12:56;6.00;;;4.10;;
16878;SDS011;8556;52.218;9.884;2023-09-19T03:15:24;6.78;;;4.15;;
16878;SDS011;8556;52.218;9.884;2023-09-19T03:17:51;4.75;;;3.95;;
16878;SDS011;8556;52.218;9.884;2023-09-19T03:20:19;7.03;;;4.45;;
16878;SDS011;8556;52.218;9.884;2023-09-19T03:22:46;7.18;;;3.95;;
16878;SDS011;8556;52.218;9.884;2023-09-19T03:25:13;8.02;;;4.10;;
16878;SDS011;8556;52.218;9.884;2023-09-19T03:27:41;5.80;;;4.10;;
16878;SDS011;8556;52.218;9.884;2023-09-19T03:30:09;8.50;;;5.15;;
16878;SDS011;8556;52.218;9.884;2023-09-19T03:32:43;7.28;;;4.78;;
16878;SDS011;8556;52.218;9.884;2023-09-19T03:35:11;8.18;;;4.60;;
16878;SDS011;8556;52.218;9.884;2023-09-19T03:37:39;9.70;;;5.40;;
16878;SDS011;8556;52.218;9.884;2023-09-19T03:40:07;7.53;;;5.00;;
16878;SDS011;8556;52.218;9.884;2023-09-19T03:42:37;9.65;;;5.57;;
16878;SDS011;8556;52.218;9.884;2023-09-19T03:45:06;8.15;;;5.05;;
16878;SDS011;8556;52.218;9.884;2023-09-19T03:47:37;9.18;;;5.55;;
16878;SDS011;8556;52.218;9.884;2023-09-19T03:50:04;10.05;;;5.43;;
16878;SDS011;8556;52.218;9.884;2023-09-19T03:52:32;8.98;;;5.68;;
16878;SDS011;8556;52.218;9.884;2023-09-19T03:54:59;7.70;;;5.38;;
16878;SDS011;8556;52.218;9.884;2023-09-19T03:57:27;9.95;;;5.40;;
16878;SDS011;8556;52.218;9.884;2023-09-19T03:59:54;10.45;;;5.63;;
16878;SDS011;8556;52.218;9.884;2023-09-19T04:02:22;9.98;;;5.82;;
16878;SDS011;8556;52.218;9.884;2023-09-19T04:04:50;12.98;;;6.32;;
16878;SDS011;8556;52.218;9.884;2023-09-19T04:07:17;10.25;;;6.05;;
16878;SDS011;8556;52.218;9.884;2023-09-19T04:09:47;9.52;;;5.85;;
16878;SDS011;8556;52.218;9.884;2023-09-19T04:12:14;8.82;;;5.53;;
16878;SDS011;8556;52.218;9.884;2023-09-19T04:14:43;9.38;;;6.00;;
16878;SDS011;8556;52.218;9.884;2023-09-19T04:17:10;11.00;;;5.95;;
16878;SDS011;8556;52.218;9.884;2023-09-19T04:19:38;16.23;;;6.22;;
16878;SDS011;8556;52.218;9.884;2023-09-19T04:22:06;9.52;;;6.38;;
16878;SDS011;8556;52.218;9.884;2023-09-19T04:24:34;11.20;;;6.22;;
16878;SDS011;8556;52.218;9.884;2023-09-19T04:27:00;11.40;;;5.70;;
16878;SDS011;8556;52.218;9.884;2023-09-19T04:29:28;10.10;;;5.93;;
16878;SDS011;8556;52.218;9.884;2023-09-19T04:31:55;9.13;;;5.75;;
16878;SDS011;8556;52.218;9.884;2023-09-19T04:34:22;11.30;;;5.70;;
16878;SDS011;8556;52.218;9.884;2023-09-19T04:36:50;13.48;;;5.95;;
16878;SDS011;8556;52.218;9.884;2023-09-19T04:39:17;10.43;;;5.78;;
16878;SDS011;8556;52.218;9.884;2023-09-19T04:41:46;13.82;;;6.30;;
16878;SDS011;8556;52.218;9.884;2023-09-19T04:44:13;8.85;;;5.80;;
16878;SDS011;8556;52.218;9.884;2023-09-19T04:46:39;8.70;;;6.40;;
16878;SDS011;8556;52.218;9.884;2023-09-19T04:49:06;9.75;;;5.82;;
16878;SDS011;8556;52.218;9.884;2023-09-19T04:51:33;14.40;;;6.38;;
16878;SDS011;8556;52.218;9.884;2023-09-19T04:54:02;14.13;;;6.35;;
16878;SDS011;8556;52.218;9.884;2023-09-19T04:56:30;14.35;;;6.53;;
16878;SDS011;8556;52.218;9.884;2023-09-19T04:58:57;17.70;;;6.43;;
16878;SDS011;8556;52.218;9.884;2023-09-19T05:01:24;9.25;;;6.00;;
16878;SDS011;8556;52.218;9.884;2023-09-19T05:03:51;9.07;;;6.25;;
16878;SDS011;8556;52.218;9.884;2023-09-19T05:06:18;12.60;;;6.25;;
16878;SDS011;8556;52.218;9.884;2023-09-19T05:08:46;9.57;;;5.72;;
16878;SDS011;8556;52.218;9.884;2023-09-19T05:11:16;12.77;;;6.93;;
16878;SDS011;8556;52.218;9.884;2023-09-19T05:13:43;14.70;;;6.32;;
16878;SDS011;8556;52.218;9.884;2023-09-19T05:16:10;9.93;;;5.97;;
16878;SDS011;8556;52.218;9.884;2023-09-19T05:18:37;15.73;;;6.13;;
16878;SDS011;8556;52.218;9.884;2023-09-19T05:21:04;13.15;;;5.82;;
16878;SDS011;8556;52.218;9.884;2023-09-19T05:23:31;11.00;;;5.60;;
16878;SDS011;8556;52.218;9.884;2023-09-19T05:25:58;14.35;;;6.13;;
16878;SDS011;8556;52.218;9.884;2023-09-19T05:28:26;9.60;;;5.60;;
16878;SDS011;8556;52.218;9.884;2023-09-19T05:30:53;11.00;;;5.43;;
16878;SDS011;8556;52.218;9.884;2023-09-19T05:33:20;9.10;;;5.85;;
16878;SDS011;8556;52.218;9.884;2023-09-19T05:35:47;13.45;;;6.05;;
16878;SDS011;8556;52.218;9.884;2023-09-19T05:38:14;10.07;;;5.10;;
16878;SDS011;8556;52.218;9.884;2023-09-19T05:40:44;11.88;;;6.13;;
16878;SDS011;8556;52.218;9.884;2023-09-19T05:43:11;10.88;;;6.28;;
16878;SDS011;8556;52.218;9.884;2023-09-19T05:45:40;12.63;;;6.00;;
16878;SDS011;8556;52.218;9.884;2023-09-19T05:48:08;8.45;;;4.93;;
16878;SDS011;8556;52.218;9.884;2023-09-19T05:50:36;8.52;;;5.72;;
16878;SDS011;8556;52.218;9.884;2023-09-19T05:53:03;10.05;;;4.93;;
16878;SDS011;8556;52.218;9.884;2023-09-19T05:55:30;10.68;;;4.65;;
16878;SDS011;8556;52.218;9.884;2023-09-19T05:57:57;10.50;;;5.05;;
16878;SDS011;8556;52.218;9.884;2023-09-19T06:00:25;13.68;;;4.88;;
16878;SDS011;8556;52.218;9.884;2023-09-19T06:02:54;12.90;;;5.25;;
16878;SDS011;8556;52.218;9.884;2023-09-19T06:05:22;12.35;;;4.95;;
16878;SDS011;8556;52.218;9.884;2023-09-19T06:07:51;10.30;;;4.63;;
16878;SDS011;8556;52.218;9.884;2023-09-19T06:10:18;9.20;;;4.50;;
16878;SDS011;8556;52.218;9.884;2023-09-19T06:12:47;7.70;;;4.07;;
16878;SDS011;8556;52.218;9.884;2023-09-19T06:15:15;9.40;;;4.68;;
16878;SDS011;8556;52.218;9.884;2023-09-19T06:17:46;6.75;;;4.13;;
16878;SDS011;8556;52.218;9.884;2023-09-19T06:20:15;10.90;;;4.97;;
16878;SDS011;8556;52.218;9.884;2023-09-19T06:22:43;9.90;;;4.65;;
16878;SDS011;8556;52.218;9.884;2023-09-19T06:25:11;10.23;;;4.65;;
16878;SDS011;8556;52.218;9.884;2023-09-19T06:27:44;9.02;;;4.20;;
16878;SDS011;8556;52.218;9.884;2023-09-19T06:30:11;9.70;;;4.75;;
16878;SDS011;8556;52.218;9.884;2023-09-19T06:32:39;13.70;;;5.00;;
16878;SDS011;8556;52.218;9.884;2023-09-19T06:35:09;12.90;;;4.70;;
16878;SDS011;8556;52.218;9.884;2023-09-19T06:37:37;9.32;;;4.47;;
16878;SDS011;8556;52.218;9.884;2023-09-19T06:40:06;8.07;;;4.45;;
16878;SDS011;8556;52.218;9.884;2023-09-19T06:42:38;10.35;;;4.38;;
16878;SDS011;8556;52.218;9.884;2023-09-19T06:45:06;10.50;;;4.05;;
16878;SDS011;8556;52.218;9.884;2023-09-19T06:47:34;11.30;;;4.20;;
16878;SDS011;8556;52.218;9.884;2023-09-19T06:50:01;10.32;;;4.40;;
16878;SDS011;8556;52.218;9.884;2023-09-19T06:52:30;10.30;;;3.90;;
16878;SDS011;8556;52.218;9.884;2023-09-19T06:54:59;10.15;;;3.70;;
16878;SDS011;8556;52.218;9.884;2023-09-19T06:57:28;9.65;;;3.97;;
16878;SDS011;8556;52.218;9.884;2023-09-19T06:59:55;11.00;;;4.00;;
16878;SDS011;8556;52.218;9.884;2023-09-19T07:02:22;11.35;;;3.47;;
16878;SDS011;8556;52.218;9.884;2023-09-19T07:04:49;10.05;;;4.03;;
16878;SDS011;8556;52.218;9.884;2023-09-19T07:07:16;10.77;;;3.85;;
16878;SDS011;8556;52.218;9.884;2023-09-19T07:09:43;9.63;;;3.17;;
16878;SDS011;8556;52.218;9.884;2023-09-19T07:12:11;8.50;;;2.97;;
16878;SDS011;8556;52.218;9.884;2023-09-19T07:14:38;10.73;;;2.85;;
16878;SDS011;8556;52.218;9.884;2023-09-19T07:17:05;7.68;;;2.67;;
16878;SDS011;8556;52.218;9.884;2023-09-19T07:19:32;12.10;;;2.80;;
16878;SDS011;8556;52.218;9.884;2023-09-19T07:21:59;12.55;;;2.38;;
16878;SDS011;8556;52.218;9.884;2023-09-19T07:24:27;10.55;;;2.95;;
16878;SDS011;8556;52.218;9.884;2023-09-19T07:26:54;6.38;;;1.92;;
16878;SDS011;8556;52.218;9.884;2023-09-19T07:29:22;10.27;;;2.75;;
16878;SDS011;8556;52.218;9.884;2023-09-19T07:31:51;8.98;;;2.83;;
16878;SDS011;8556;52.218;9.884;2023-09-19T07:34:18;10.50;;;2.53;;
16878;SDS011;8556;52.218;9.884;2023-09-19T07:36:45;7.43;;;1.98;;
16878;SDS011;8556;52.218;9.884;2023-09-19T07:39:12;9.55;;;2.88;;
16878;SDS011;8556;52.218;9.884;2023-09-19T07:41:39;7.88;;;1.95;;
16878;SDS011;8556;52.218;9.884;2023-09-19T07:44:07;10.93;;;1.77;;
16878;SDS011;8556;52.218;9.884;2023-09-19T07:46:36;5.57;;;1.90;;
16878;SDS011;8556;52.218;9.884;2023-09-19T07:49:03;5.18;;;1.70;;
16878;SDS011;8556;52.218;9.884;2023-09-19T07:51:30;7.40;;;2.30;;
16878;SDS011;8556;52.218;9.884;2023-09-19T07:53:58;10.90;;;3.22;;
16878;SDS011;8556;52.218;9.884;2023-09-19T07:56:25;7.50;;;2.05;;
16878;SDS011;8556;52.218;9.884;2023-09-19T07:58:52;9.25;;;2.60;;
16878;SDS011;8556;52.218;9.884;2023-09-19T08:01:19;8.40;;;2.22;;
16878;SDS011;8556;52.218;9.884;2023-09-19T08:03:50;9.00;;;2.20;;
16878;SDS011;8556;52.218;9.884;2023-09-19T08:06:17;6.55;;;2.10;;
16878;SDS011;8556;52.218;9.884;2023-09-19T08:08:44;11.70;;;2.97;;
16878;SDS011;8556;52.218;9.884;2023-09-19T08:11:10;7.10;;;1.65;;
16878;SDS011;8556;52.218;9.884;2023-09-19T08:13:37;8.18;;;2.20;;
16878;SDS011;8556;52.218;9.884;2023-09-19T08:16:08;8.85;;;2.30;;
16878;SDS011;8556;52.218;9.884;2023-09-19T08:18:35;8.77;;;2.20;;
16878;SDS011;8556;52.218;9.884;2023-09-19T08:21:03;9.57;;;2.33;;
16878;SDS011;8556;52.218;9.884;2023-09-19T08:23:33;4.63;;;1.90;;
16878;SDS011;8556;52.218;9.884;2023-09-19T08:26:00;5.18;;;2.00;;
16878;SDS011;8556;52.218;9.884;2023-09-19T08:28:31;8.77;;;2.45;;
16878;SDS011;8556;52.218;9.884;2023-09-19T08:31:01;7.03;;;2.42;;
16878;SDS011;8556;52.218;9.884;2023-09-19T08:33:29;9.20;;;2.03;;
16878;SDS011;8556;52.218;9.884;2023-09-19T08:35:57;11.30;;;2.30;;
16878;SDS011;8556;52.218;9.884;2023-09-19T08:38:25;8.48;;;2.60;;
16878;SDS011;8556;52.218;9.884;2023-09-19T08:40:56;9.35;;;1.90;;
16878;SDS011;8556;52.218;9.884;2023-09-19T08:43:23;5.65;;;1.77;;
16878;SDS011;8556;52.218;9.884;2023-09-19T08:45:50;7.28;;;1.80;;
16878;SDS011;8556;52.218;9.884;2023-09-19T08:48:23;6.05;;;2.30;;
16878;SDS011;8556;52.218;9.884;2023-09-19T08:50:56;8.23;;;1.92;;
16878;SDS011;8556;52.218;9.884;2023-09-19T08:53:30;8.02;;;2.28;;
16878;SDS011;8556;52.218;9.884;2023-09-19T08:56:03;7.55;;;1.90;;
16878;SDS011;8556;52.218;9.884;2023-09-19T08:58:38;8.93;;;2.22;;
16878;SDS011;8556;52.218;9.884;2023-09-19T09:01:09;10.82;;;2.55;;
16878;SDS011;8556;52.218;9.884;2023-09-19T09:03:39;7.38;;;2.22;;
16878;SDS011;8556;52.218;9.884;2023-09-19T09:06:11;7.55;;;1.80;;
16878;SDS011;8556;52.218;9.884;2023-09-19T09:08:43;7.18;;;2.33;;
16878;SDS011;8556;52.218;9.884;2023-09-19T09:11:10;9.00;;;1.92;;
16878;SDS011;8556;52.218;9.884;2023-09-19T09:13:37;5.47;;;2.03;;
16878;SDS011;8556;52.218;9.884;2023-09-19T09:16:06;7.53;;;1.90;;
16878;SDS011;8556;52.218;9.884;2023-09-19T09:18:33;9.30;;;2.15;;
16878;SDS011;8556;52.218;9.884;2023-09-19T09:21:00;7.95;;;1.95;;
16878;SDS011;8556;52.218;9.884;2023-09-19T09:23:27;5.78;;;1.70;;
16878;SDS011;8556;52.218;9.884;2023-09-19T09:25:56;8.27;;;1.63;;
16878;SDS011;8556;52.218;9.884;2023-09-19T09:28:28;7.07;;;2.03;;
16878;SDS011;8556;52.218;9.884;2023-09-19T09:30:55;7.82;;;1.92;;
16878;SDS011;8556;52.218;9.884;2023-09-19T09:33:23;7.15;;;1.75;;
16878;SDS011;8556;52.218;9.884;2023-09-19T09:35:51;6.38;;;1.95;;
16878;SDS011;8556;52.218;9.884;2023-09-19T09:38:21;5.03;;;1.90;;
16878;SDS011;8556;52.218;9.884;2023-09-19T09:40:52;5.68;;;1.60;;
16878;SDS011;8556;52.218;9.884;2023-09-19T09:43:29;6.60;;;1.83;;
16878;SDS011;8556;52.218;9.884;2023-09-19T09:46:11;10.00;;;2.33;;
16878;SDS011;8556;52.218;9.884;2023-09-19T09:48:56;5.10;;;1.77;;
16878;SDS011;8556;52.218;9.884;2023-09-19T09:51:45;4.40;;;2.10;;
16878;SDS011;8556;52.218;9.884;2023-09-19T09:54:22;5.95;;;1.80;;
16878;SDS011;8556;52.218;9.884;2023-09-19T09:56:53;5.97;;;2.05;;
16878;SDS011;8556;52.218;9.884;2023-09-19T09:59:29;3.58;;;1.67;;
16878;SDS011;8556;52.218;9.884;2023-09-19T10:02:13;9.60;;;2.53;;
16878;SDS011;8556;52.218;9.884;2023-09-19T10:04:41;5.32;;;2.08;;
16878;SDS011;8556;52.218;9.884;2023-09-19T10:07:24;8.20;;;2.55;;
16878;SDS011;8556;52.218;9.884;2023-09-19T10:09:58;6.53;;;2.28;;
16878;SDS011;8556;52.218;9.884;2023-09-19T10:12:34;11.10;;;2.42;;
16878;SDS011;8556;52.218;9.884;2023-09-19T10:15:06;11.20;;;2.70;;
16878;SDS011;8556;52.218;9.884;2023-09-19T10:17:36;7.55;;;2.25;;
16878;SDS011;8556;52.218;9.884;2023-09-19T10:20:05;8.15;;;1.98;;
16878;SDS011;8556;52.218;9.884;2023-09-19T10:22:43;10.85;;;2.22;;
16878;SDS011;8556;52.218;9.884;2023-09-19T10:25:22;10.00;;;2.17;;
16878;SDS011;8556;52.218;9.884;2023-09-19T10:27:51;5.38;;;2.42;;
16878;SDS011;8556;52.218;9.884;2023-09-19T10:30:21;7.22;;;2.22;;
16878;SDS011;8556;52.218;9.884;2023-09-19T10:32:53;5.30;;;2.20;;
16878;SDS011;8556;52.218;9.884;2023-09-19T10:35:27;8.40;;;2.40;;
16878;SDS011;8556;52.218;9.884;2023-09-19T10:37:54;5.72;;;2.10;;
16878;SDS011;8556;52.218;9.884;2023-09-19T10:40:26;9.90;;;2.50;;
16878;SDS011;8556;52.218;9.884;2023-09-19T10:42:58;7.32;;;2.30;;
16878;SDS011;8556;52.218;9.884;2023-09-19T10:45:32;8.50;;;2.22;;
16878;SDS011;8556;52.218;9.884;2023-09-19T10:48:04;6.80;;;2.30;;
16878;SDS011;8556;52.218;9.884;2023-09-19T10:50:33;7.88;;;2.83;;
16878;SDS011;8556;52.218;9.884;2023-09-19T10:53:04;7.55;;;2.40;;
16878;SDS011;8556;52.218;9.884;2023-09-19T10:55:33;6.07;;;2.20;;
16878;SDS011;8556;52.218;9.884;2023-09-19T10:58:01;9.23;;;2.38;;
16878;SDS011;8556;52.218;9.884;2023-09-19T11:03:20;9.52;;;2.33;;
16878;SDS011;8556;52.218;9.884;2023-09-19T11:06:02;5.40;;;2.45;;
16878;SDS011;8556;52.218;9.884;2023-09-19T11:11:39;6.95;;;2.53;;
16878;SDS011;8556;52.218;9.884;2023-09-19T11:23:21;8.25;;;2.58;;
16878;SDS011;8556;52.218;9.884;2023-09-19T11:25:51;5.28;;;2.67;;
16878;SDS011;8556;52.218;9.884;2023-09-19T11:28:31;5.82;;;2.55;;
16878;SDS011;8556;52.218;9.884;2023-09-19T11:40:40;9.80;;;3.10;;
16878;SDS011;8556;52.218;9.884;2023-09-19T11:43:32;6.38;;;2.35;;
16878;SDS011;8556;52.218;9.884;2023-09-19T11:46:01;7.82;;;2.80;;
16878;SDS011;8556;52.218;9.884;2023-09-19T11:48:30;8.60;;;2.75;;
16878;SDS011;8556;52.218;9.884;2023-09-19T11:51:01;6.22;;;2.67;;
16878;SDS011;8556;52.218;9.884;2023-09-19T11:53:40;6.80;;;2.80;;
16878;SDS011;8556;52.218;9.884;2023-09-19T11:56:09;8.23;;;2.47;;
16878;SDS011;8556;52.218;9.884;2023-09-19T11:58:37;6.65;;;2.53;;
16878;SDS011;8556;52.218;9.884;2023-09-19T12:01:04;8.50;;;3.67;;
16878;SDS011;8556;52.218;9.884;2023-09-19T12:03:37;5.55;;;2.45;;
16878;SDS011;8556;52.218;9.884;2023-09-19T12:06:13;6.63;;;2.70;;
16878;SDS011;8556;52.218;9.884;2023-09-19T12:08:40;8.32;;;2.70;;
16878;SDS011;8556;52.218;9.884;2023-09-19T12:11:11;6.07;;;2.17;;
16878;SDS011;8556;52.218;9.884;2023-09-19T12:13:43;5.40;;;2.20;;
16878;SDS011;8556;52.218;9.884;2023-09-19T12:16:12;4.78;;;2.05;;
16878;SDS011;8556;52.218;9.884;2023-09-19T12:18:40;6.82;;;2.60;;
16878;SDS011;8556;52.218;9.884;2023-09-19T12:21:22;8.00;;;2.45;;
16878;SDS011;8556;52.218;9.884;2023-09-19T12:23:56;7.18;;;2.92;;
16878;SDS011;8556;52.218;9.884;2023-09-19T12:26:38;6.05;;;2.45;;
16878;SDS011;8556;52.218;9.884;2023-09-19T12:29:10;7.80;;;2.45;;
16878;SDS011;8556;52.218;9.884;2023-09-19T12:31:47;6.97;;;2.75;;
16878;SDS011;8556;52.218;9.884;2023-09-19T12:34:16;8.23;;;2.85;;
16878;SDS011;8556;52.218;9.884;2023-09-19T12:36:46;4.72;;;2.63;;
16878;SDS011;8556;52.218;9.884;2023-09-19T12:39:22;5.00;;;2.38;;
16878;SDS011;8556;52.218;9.884;2023-09-19T12:41:51;5.88;;;3.08;;
16878;SDS011;8556;52.218;9.884;2023-09-19T12:44:18;7.72;;;3.20;;
16878;SDS011;8556;52.218;9.884;2023-09-19T12:46:45;6.68;;;2.47;;
16878;SDS011;8556;52.218;9.884;2023-09-19T12:49:18;7.40;;;3.05;;
16878;SDS011;8556;52.218;9.884;2023-09-19T12:51:48;6.85;;;3.00;;
16878;SDS011;8556;52.218;9.884;2023-09-19T12:54:15;9.27;;;2.63;;
16878;SDS011;8556;52.218;9.884;2023-09-19T12:56:43;7.47;;;2.92;;
16878;SDS011;8556;52.218;9.884;2023-09-19T12:59:15;6.82;;;3.13;;
16878;SDS011;8556;52.218;9.884;2023-09-19T13:01:42;7.50;;;2.92;;
16878;SDS011;8556;52.218;9.884;2023-09-19T13:04:12;7.28;;;2.70;;
16878;SDS011;8556;52.218;9.884;2023-09-19T13:06:43;8.27;;;2.88;;
16878;SDS011;8556;52.218;9.884;2023-09-19T13:09:12;8.55;;;2.72;;
16878;SDS011;8556;52.218;9.884;2023-09-19T13:11:43;8.68;;;3.25;;
16878;SDS011;8556;52.218;9.884;2023-09-19T13:14:13;8.32;;;3.10;;
16878;SDS011;8556;52.218;9.884;2023-09-19T13:16:58;5.47;;;2.67;;
16878;SDS011;8556;52.218;9.884;2023-09-19T13:19:35;6.03;;;2.55;;
16878;SDS011;8556;52.218;9.884;2023-09-19T13:22:02;8.38;;;3.15;;
16878;SDS011;8556;52.218;9.884;2023-09-19T13:24:31;7.05;;;2.97;;
16878;SDS011;8556;52.218;9.884;2023-09-19T13:27:00;8.23;;;2.53;;
16878;SDS011;8556;52.218;9.884;2023-09-19T13:29:31;8.23;;;2.88;;
16878;SDS011;8556;52.218;9.884;2023-09-19T13:31:58;5.55;;;2.60;;
16878;SDS011;8556;52.218;9.884;2023-09-19T13:34:25;10.10;;;2.75;;
16878;SDS011;8556;52.218;9.884;2023-09-19T13:36:54;6.75;;;2.75;;
16878;SDS011;8556;52.218;9.884;2023-09-19T13:39:21;9.88;;;2.60;;
16878;SDS011;8556;52.218;9.884;2023-09-19T13:41:51;5.50;;;2.58;;
16878;SDS011;8556;52.218;9.884;2023-09-19T13:44:18;12.02;;;2.30;;
16878;SDS011;8556;52.218;9.884;2023-09-19T13:46:45;4.93;;;2.50;;
16878;SDS011;8556;52.218;9.884;2023-09-19T13:49:12;10.85;;;3.40;;
16878;SDS011;8556;52.218;9.884;2023-09-19T13:51:38;7.43;;;3.17;;
16878;SDS011;8556;52.218;9.884;2023-09-19T13:54:08;6.68;;;2.50;;
16878;SDS011;8556;52.218;9.884;2023-09-19T13:56:36;5.60;;;3.20;;
16878;SDS011;8556;52.218;9.884;2023-09-19T13:59:05;9.02;;;2.92;;
16878;SDS011;8556;52.218;9.884;2023-09-19T14:01:32;5.47;;;2.53;;
16878;SDS011;8556;52.218;9.884;2023-09-19T14:03:59;5.45;;;2.40;;
16878;SDS011;8556;52.218;9.884;2023-09-19T14:06:31;5.63;;;2.28;;
16878;SDS011;8556;52.218;9.884;2023-09-19T14:08:58;4.43;;;2.30;;
16878;SDS011;8556;52.218;9.884;2023-09-19T14:11:26;4.97;;;2.40;;
16878;SDS011;8556;52.218;9.884;2023-09-19T14:13:53;8.02;;;2.63;;
16878;SDS011;8556;52.218;9.884;2023-09-19T14:16:21;4.50;;;2.40;;
16878;SDS011;8556;52.218;9.884;2023-09-19T14:18:49;8.25;;;2.60;;
16878;SDS011;8556;52.218;9.884;2023-09-19T14:21:18;9.68;;;2.97;;
16878;SDS011;8556;52.218;9.884;2023-09-19T14:23:45;5.63;;;2.22;;
16878;SDS011;8556;52.218;9.884;2023-09-19T14:26:14;6.05;;;2.30;;
16878;SDS011;8556;52.218;9.884;2023-09-19T14:28:43;4.65;;;2.35;;
16878;SDS011;8556;52.218;9.884;2023-09-19T14:31:10;6.35;;;2.53;;
16878;SDS011;8556;52.218;9.884;2023-09-19T14:33:41;4.45;;;2.47;;
16878;SDS011;8556;52.218;9.884;2023-09-19T14:36:09;8.75;;;2.90;;
16878;SDS011;8556;52.218;9.884;2023-09-19T14:38:38;6.03;;;2.72;;
16878;SDS011;8556;52.218;9.884;2023-09-19T14:41:05;6.35;;;2.13;;
16878;SDS011;8556;52.218;9.884;2023-09-19T14:43:34;7.35;;;2.80;;
16878;SDS011;8556;52.218;9.884;2023-09-19T14:46:02;7.53;;;2.53;;
16878;SDS011;8556;52.218;9.884;2023-09-19T14:48:29;4.63;;;2.42;;
16878;SDS011;8556;52.218;9.884;2023-09-19T14:51:02;6.80;;;2.65;;
16878;SDS011;8556;52.218;9.884;2023-09-19T14:53:29;6.45;;;3.47;;
16878;SDS011;8556;52.218;9.884;2023-09-19T14:55:56;6.65;;;2.20;;
16878;SDS011;8556;52.218;9.884;2023-09-19T14:58:28;5.80;;;2.58;;
16878;SDS011;8556;52.218;9.884;2023-09-19T15:01:01;7.47;;;2.50;;
16878;SDS011;8556;52.218;9.884;2023-09-19T15:03:30;5.18;;;2.10;;
16878;SDS011;8556;52.218;9.884;2023-09-19T15:05:59;3.78;;;1.83;;
16878;SDS011;8556;52.218;9.884;2023-09-19T15:08:28;7.78;;;2.17;;
16878;SDS011;8556;52.218;9.884;2023-09-19T15:10:59;3.95;;;1.98;;
16878;SDS011;8556;52.218;9.884;2023-09-19T15:13:28;5.93;;;2.30;;
16878;SDS011;8556;52.218;9.884;2023-09-19T15:15:58;4.07;;;2.30;;
16878;SDS011;8556;52.218;9.884;2023-09-19T15:18:26;6.70;;;2.40;;
16878;SDS011;8556;52.218;9.884;2023-09-19T15:20:52;3.60;;;1.98;;
16878;SDS011;8556;52.218;9.884;2023-09-19T15:23:19;4.75;;;2.03;;
16878;SDS011;8556;52.218;9.884;2023-09-19T15:25:48;5.68;;;1.80;;
16878;SDS011;8556;52.218;9.884;2023-09-19T15:28:16;5.25;;;2.17;;
16878;SDS011;8556;52.218;9.884;2023-09-19T15:30:43;3.22;;;1.83;;
16878;SDS011;8556;52.218;9.884;2023-09-19T15:33:10;7.63;;;2.40;;
16878;SDS011;8556;52.218;9.884;2023-09-19T15:35:37;4.90;;;2.03;;